sensor_id;sensor_type;location;lat;lon;timestamp;P1;durP1;ratioP1;P2;durP2;ratioP2
25481;SDS011;13395;50.752;4.268;2024-01-11T00:01:47;47.28;;;19.90;;
25481;SDS011;13395;50.752;4.268;2024-01-11T00:04:13;53.08;;;22.42;;
25481;SDS011;13395;50.752;4.268;2024-01-11T00:06:42;54.65;;;23.13;;
25481;SDS011;13395;50.752;4.268;2024-01-11T00:09:08;58.80;;;22.02;;
25481;SDS011;13395;50.752;4.268;2024-01-11T00:11:34;53.35;;;22.25;;
25481;SDS011;13395;50.752;4.268;2024-01-11T00:13:59;59.75;;;22.27;;
25481;SDS011;13395;50.752;4.268;2024-01-11T00:16:25;58.45;;;22.13;;
25481;SDS011;13395;50.752;4.268;2024-01-11T00:18:51;51.65;;;20.77;;
25481;SDS011;13395;50.752;4.268;2024-01-11T00:21:17;58.10;;;22.45;;
25481;SDS011;13395;50.752;4.268;2024-01-11T00:23:43;50.63;;;21.35;;
25481;SDS011;13395;50.752;4.268;2024-01-11T00:26:08;57.33;;;22.17;;
25481;SDS011;13395;50.752;4.268;2024-01-11T00:28:37;60.15;;;23.75;;
25481;SDS011;13395;50.752;4.268;2024-01-11T00:31:02;70.43;;;23.17;;
25481;SDS011;13395;50.752;4.268;2024-01-11T00:33:28;66.38;;;23.65;;
25481;SDS011;13395;50.752;4.268;2024-01-11T00:35:54;52.30;;;21.98;;
25481;SDS011;13395;50.752;4.268;2024-01-11T00:38:19;52.25;;;21.77;;
25481;SDS011;13395;50.752;4.268;2024-01-11T00:40:45;53.38;;;21.58;;
25481;SDS011;13395;50.752;4.268;2024-01-11T00:43:10;59.45;;;23.60;;
25481;SDS011;13395;50.752;4.268;2024-01-11T00:45:36;55.83;;;24.08;;
25481;SDS011;13395;50.752;4.268;2024-01-11T00:48:03;56.45;;;22.17;;
25481;SDS011;13395;50.752;4.268;2024-01-11T00:50:29;50.15;;;22.13;;
25481;SDS011;13395;50.752;4.268;2024-01-11T00:52:55;51.55;;;21.88;;
25481;SDS011;13395;50.752;4.268;2024-01-11T00:55:20;53.67;;;23.40;;
25481;SDS011;13395;50.752;4.268;2024-01-11T00:57:46;57.92;;;21.48;;
25481;SDS011;13395;50.752;4.268;2024-01-11T01:00:12;59.88;;;23.38;;
25481;SDS011;13395;50.752;4.268;2024-01-11T01:02:41;50.72;;;21.23;;
25481;SDS011;13395;50.752;4.268;2024-01-11T01:05:06;50.10;;;21.98;;
25481;SDS011;13395;50.752;4.268;2024-01-11T01:07:32;53.67;;;21.85;;
25481;SDS011;13395;50.752;4.268;2024-01-11T01:09:58;55.95;;;20.92;;
25481;SDS011;13395;50.752;4.268;2024-01-11T01:12:24;61.80;;;23.13;;
25481;SDS011;13395;50.752;4.268;2024-01-11T01:14:52;53.50;;;21.52;;
25481;SDS011;13395;50.752;4.268;2024-01-11T01:17:18;48.95;;;20.95;;
25481;SDS011;13395;50.752;4.268;2024-01-11T01:19:43;50.38;;;21.60;;
25481;SDS011;13395;50.752;4.268;2024-01-11T01:22:09;53.40;;;21.02;;
25481;SDS011;13395;50.752;4.268;2024-01-11T01:24:35;52.90;;;20.48;;
25481;SDS011;13395;50.752;4.268;2024-01-11T01:27:00;64.90;;;22.75;;
25481;SDS011;13395;50.752;4.268;2024-01-11T01:29:26;60.05;;;22.58;;
25481;SDS011;13395;50.752;4.268;2024-01-11T01:31:52;50.15;;;20.05;;
25481;SDS011;13395;50.752;4.268;2024-01-11T01:34:18;45.33;;;20.30;;
25481;SDS011;13395;50.752;4.268;2024-01-11T01:36:44;52.03;;;22.83;;
25481;SDS011;13395;50.752;4.268;2024-01-11T01:39:09;55.38;;;24.83;;
25481;SDS011;13395;50.752;4.268;2024-01-11T01:41:35;48.50;;;21.13;;
25481;SDS011;13395;50.752;4.268;2024-01-11T01:44:01;50.90;;;22.65;;
25481;SDS011;13395;50.752;4.268;2024-01-11T01:46:26;58.28;;;22.17;;
25481;SDS011;13395;50.752;4.268;2024-01-11T01:48:53;59.30;;;23.00;;
25481;SDS011;13395;50.752;4.268;2024-01-11T01:51:22;47.85;;;20.58;;
25481;SDS011;13395;50.752;4.268;2024-01-11T01:53:50;49.53;;;20.85;;
25481;SDS011;13395;50.752;4.268;2024-01-11T01:56:18;49.75;;;21.15;;
25481;SDS011;13395;50.752;4.268;2024-01-11T01:58:44;50.30;;;21.38;;
25481;SDS011;13395;50.752;4.268;2024-01-11T02:01:11;52.00;;;20.80;;
25481;SDS011;13395;50.752;4.268;2024-01-11T02:03:37;50.25;;;19.83;;
25481;SDS011;13395;50.752;4.268;2024-01-11T02:06:03;47.30;;;20.35;;
25481;SDS011;13395;50.752;4.268;2024-01-11T02:08:30;57.80;;;22.67;;
25481;SDS011;13395;50.752;4.268;2024-01-11T02:10:57;50.63;;;21.05;;
25481;SDS011;13395;50.752;4.268;2024-01-11T02:13:24;56.90;;;22.23;;
25481;SDS011;13395;50.752;4.268;2024-01-11T02:15:50;55.13;;;22.70;;
25481;SDS011;13395;50.752;4.268;2024-01-11T02:18:16;49.00;;;20.55;;
25481;SDS011;13395;50.752;4.268;2024-01-11T02:20:42;47.90;;;20.67;;
25481;SDS011;13395;50.752;4.268;2024-01-11T02:23:08;57.13;;;22.08;;
25481;SDS011;13395;50.752;4.268;2024-01-11T02:25:42;57.65;;;22.48;;
25481;SDS011;13395;50.752;4.268;2024-01-11T02:28:08;47.45;;;20.25;;
25481;SDS011;13395;50.752;4.268;2024-01-11T02:30:33;49.20;;;20.90;;
25481;SDS011;13395;50.752;4.268;2024-01-11T02:32:59;48.83;;;22.83;;
25481;SDS011;13395;50.752;4.268;2024-01-11T02:35:26;55.30;;;22.80;;
25481;SDS011;13395;50.752;4.268;2024-01-11T02:37:52;55.70;;;20.55;;
25481;SDS011;13395;50.752;4.268;2024-01-11T02:40:19;48.60;;;20.50;;
25481;SDS011;13395;50.752;4.268;2024-01-11T02:42:45;54.15;;;21.35;;
25481;SDS011;13395;50.752;4.268;2024-01-11T02:45:11;59.55;;;21.70;;
25481;SDS011;13395;50.752;4.268;2024-01-11T02:47:37;50.28;;;22.15;;
25481;SDS011;13395;50.752;4.268;2024-01-11T02:50:04;54.10;;;21.45;;
25481;SDS011;13395;50.752;4.268;2024-01-11T02:52:32;54.03;;;21.40;;
25481;SDS011;13395;50.752;4.268;2024-01-11T02:54:58;57.33;;;23.77;;
25481;SDS011;13395;50.752;4.268;2024-01-11T02:57:23;51.83;;;22.48;;
25481;SDS011;13395;50.752;4.268;2024-01-11T02:59:51;59.42;;;22.90;;
25481;SDS011;13395;50.752;4.268;2024-01-11T03:02:17;50.60;;;20.73;;
25481;SDS011;13395;50.752;4.268;2024-01-11T03:04:43;50.03;;;22.15;;
25481;SDS011;13395;50.752;4.268;2024-01-11T03:07:08;57.17;;;21.73;;
25481;SDS011;13395;50.752;4.268;2024-01-11T03:09:34;46.25;;;20.92;;
25481;SDS011;13395;50.752;4.268;2024-01-11T03:11:59;50.22;;;22.55;;
25481;SDS011;13395;50.752;4.268;2024-01-11T03:14:25;53.47;;;21.45;;
25481;SDS011;13395;50.752;4.268;2024-01-11T03:16:51;53.28;;;21.27;;
25481;SDS011;13395;50.752;4.268;2024-01-11T03:19:17;53.35;;;22.05;;
25481;SDS011;13395;50.752;4.268;2024-01-11T03:21:43;49.55;;;21.65;;
25481;SDS011;13395;50.752;4.268;2024-01-11T03:24:09;56.95;;;22.42;;
25481;SDS011;13395;50.752;4.268;2024-01-11T03:26:35;54.10;;;22.35;;
25481;SDS011;13395;50.752;4.268;2024-01-11T03:29:00;49.17;;;22.33;;
25481;SDS011;13395;50.752;4.268;2024-01-11T03:31:26;48.92;;;21.90;;
25481;SDS011;13395;50.752;4.268;2024-01-11T03:33:51;54.95;;;22.77;;
25481;SDS011;13395;50.752;4.268;2024-01-11T03:36:17;47.40;;;20.73;;
25481;SDS011;13395;50.752;4.268;2024-01-11T03:38:42;50.38;;;22.20;;
25481;SDS011;13395;50.752;4.268;2024-01-11T03:41:08;61.80;;;23.40;;
25481;SDS011;13395;50.752;4.268;2024-01-11T03:43:35;62.50;;;22.55;;
25481;SDS011;13395;50.752;4.268;2024-01-11T03:46:01;50.08;;;22.35;;
25481;SDS011;13395;50.752;4.268;2024-01-11T03:48:27;56.50;;;21.58;;
25481;SDS011;13395;50.752;4.268;2024-01-11T03:50:53;50.97;;;21.63;;
25481;SDS011;13395;50.752;4.268;2024-01-11T03:53:19;49.65;;;22.05;;
25481;SDS011;13395;50.752;4.268;2024-01-11T03:55:44;51.65;;;22.17;;
25481;SDS011;13395;50.752;4.268;2024-01-11T03:58:10;59.58;;;23.70;;
25481;SDS011;13395;50.752;4.268;2024-01-11T04:00:35;51.55;;;21.80;;
25481;SDS011;13395;50.752;4.268;2024-01-11T04:03:01;59.22;;;23.27;;
25481;SDS011;13395;50.752;4.268;2024-01-11T04:05:27;58.08;;;22.98;;
25481;SDS011;13395;50.752;4.268;2024-01-11T04:07:53;54.90;;;22.13;;
25481;SDS011;13395;50.752;4.268;2024-01-11T04:10:18;53.05;;;21.70;;
25481;SDS011;13395;50.752;4.268;2024-01-11T04:12:44;43.80;;;20.83;;
25481;SDS011;13395;50.752;4.268;2024-01-11T04:15:12;50.05;;;21.65;;
25481;SDS011;13395;50.752;4.268;2024-01-11T04:17:39;61.45;;;23.25;;
25481;SDS011;13395;50.752;4.268;2024-01-11T04:20:05;54.63;;;22.50;;
25481;SDS011;13395;50.752;4.268;2024-01-11T04:22:31;59.22;;;22.80;;
25481;SDS011;13395;50.752;4.268;2024-01-11T04:24:57;53.63;;;21.98;;
25481;SDS011;13395;50.752;4.268;2024-01-11T04:27:23;54.00;;;22.60;;
25481;SDS011;13395;50.752;4.268;2024-01-11T04:29:48;52.13;;;22.33;;
25481;SDS011;13395;50.752;4.268;2024-01-11T04:32:14;53.92;;;21.67;;
25481;SDS011;13395;50.752;4.268;2024-01-11T04:34:40;59.35;;;24.02;;
25481;SDS011;13395;50.752;4.268;2024-01-11T04:37:06;55.80;;;22.77;;
25481;SDS011;13395;50.752;4.268;2024-01-11T04:39:32;62.17;;;24.08;;
25481;SDS011;13395;50.752;4.268;2024-01-11T04:41:57;50.83;;;22.15;;
25481;SDS011;13395;50.752;4.268;2024-01-11T04:44:24;57.58;;;21.55;;
25481;SDS011;13395;50.752;4.268;2024-01-11T04:46:49;53.80;;;22.52;;
25481;SDS011;13395;50.752;4.268;2024-01-11T04:49:15;49.65;;;22.42;;
25481;SDS011;13395;50.752;4.268;2024-01-11T04:51:41;53.85;;;22.13;;
25481;SDS011;13395;50.752;4.268;2024-01-11T04:54:06;49.20;;;20.88;;
25481;SDS011;13395;50.752;4.268;2024-01-11T04:56:32;52.97;;;22.30;;
25481;SDS011;13395;50.752;4.268;2024-01-11T04:58:57;62.38;;;22.13;;
25481;SDS011;13395;50.752;4.268;2024-01-11T05:01:23;57.95;;;23.23;;
25481;SDS011;13395;50.752;4.268;2024-01-11T05:03:49;51.80;;;21.25;;
25481;SDS011;13395;50.752;4.268;2024-01-11T05:06:18;52.28;;;23.00;;
25481;SDS011;13395;50.752;4.268;2024-01-11T05:08:46;62.63;;;24.20;;
25481;SDS011;13395;50.752;4.268;2024-01-11T05:11:16;65.03;;;23.85;;
25481;SDS011;13395;50.752;4.268;2024-01-11T05:16:31;61.08;;;21.73;;
25481;SDS011;13395;50.752;4.268;2024-01-11T05:18:57;46.47;;;21.35;;
25481;SDS011;13395;50.752;4.268;2024-01-11T05:21:23;57.55;;;21.63;;
25481;SDS011;13395;50.752;4.268;2024-01-11T05:23:49;56.17;;;22.83;;
25481;SDS011;13395;50.752;4.268;2024-01-11T05:26:16;56.92;;;22.33;;
25481;SDS011;13395;50.752;4.268;2024-01-11T05:28:42;60.65;;;22.08;;
25481;SDS011;13395;50.752;4.268;2024-01-11T05:31:09;53.90;;;21.75;;
25481;SDS011;13395;50.752;4.268;2024-01-11T05:33:35;59.05;;;24.50;;
25481;SDS011;13395;50.752;4.268;2024-01-11T05:36:01;56.00;;;21.17;;
25481;SDS011;13395;50.752;4.268;2024-01-11T05:38:27;55.90;;;23.75;;
25481;SDS011;13395;50.752;4.268;2024-01-11T05:40:53;55.65;;;22.70;;
25481;SDS011;13395;50.752;4.268;2024-01-11T05:43:18;63.55;;;24.55;;
25481;SDS011;13395;50.752;4.268;2024-01-11T05:45:44;56.20;;;23.50;;
25481;SDS011;13395;50.752;4.268;2024-01-11T05:48:10;58.67;;;21.88;;
25481;SDS011;13395;50.752;4.268;2024-01-11T05:50:36;59.22;;;22.48;;
25481;SDS011;13395;50.752;4.268;2024-01-11T05:53:02;69.90;;;24.95;;
25481;SDS011;13395;50.752;4.268;2024-01-11T05:55:28;57.80;;;23.63;;
25481;SDS011;13395;50.752;4.268;2024-01-11T05:57:54;55.53;;;22.52;;
25481;SDS011;13395;50.752;4.268;2024-01-11T06:00:20;56.08;;;23.25;;
25481;SDS011;13395;50.752;4.268;2024-01-11T06:02:45;59.88;;;23.80;;
25481;SDS011;13395;50.752;4.268;2024-01-11T06:05:11;55.13;;;23.00;;
25481;SDS011;13395;50.752;4.268;2024-01-11T06:07:40;52.88;;;22.45;;
25481;SDS011;13395;50.752;4.268;2024-01-11T06:10:06;56.72;;;22.63;;
25481;SDS011;13395;50.752;4.268;2024-01-11T06:12:34;61.80;;;23.90;;
25481;SDS011;13395;50.752;4.268;2024-01-11T06:15:00;60.70;;;23.45;;
25481;SDS011;13395;50.752;4.268;2024-01-11T06:17:27;58.53;;;23.17;;
25481;SDS011;13395;50.752;4.268;2024-01-11T06:19:52;56.78;;;24.65;;
25481;SDS011;13395;50.752;4.268;2024-01-11T06:22:18;59.63;;;23.52;;
25481;SDS011;13395;50.752;4.268;2024-01-11T06:24:44;68.75;;;24.88;;
25481;SDS011;13395;50.752;4.268;2024-01-11T06:27:10;61.05;;;23.95;;
25481;SDS011;13395;50.752;4.268;2024-01-11T06:29:35;56.13;;;25.67;;
25481;SDS011;13395;50.752;4.268;2024-01-11T06:32:01;75.45;;;32.40;;
25481;SDS011;13395;50.752;4.268;2024-01-11T06:34:27;65.65;;;31.77;;
25481;SDS011;13395;50.752;4.268;2024-01-11T06:36:53;78.85;;;33.55;;
25481;SDS011;13395;50.752;4.268;2024-01-11T06:39:22;63.55;;;27.75;;
25481;SDS011;13395;50.752;4.268;2024-01-11T06:41:47;64.05;;;27.52;;
25481;SDS011;13395;50.752;4.268;2024-01-11T06:44:13;63.33;;;26.17;;
25481;SDS011;13395;50.752;4.268;2024-01-11T06:46:39;53.47;;;22.90;;
25481;SDS011;13395;50.752;4.268;2024-01-11T06:49:06;58.08;;;24.63;;
25481;SDS011;13395;50.752;4.268;2024-01-11T06:51:35;53.00;;;23.77;;
25481;SDS011;13395;50.752;4.268;2024-01-11T06:54:00;61.55;;;25.50;;
25481;SDS011;13395;50.752;4.268;2024-01-11T06:56:26;62.33;;;21.85;;
25481;SDS011;13395;50.752;4.268;2024-01-11T06:58:52;59.95;;;23.10;;
25481;SDS011;13395;50.752;4.268;2024-01-11T07:01:19;65.53;;;23.73;;
25481;SDS011;13395;50.752;4.268;2024-01-11T07:03:45;55.20;;;23.20;;
25481;SDS011;13395;50.752;4.268;2024-01-11T07:06:11;55.60;;;24.83;;
25481;SDS011;13395;50.752;4.268;2024-01-11T07:08:37;62.70;;;25.85;;
25481;SDS011;13395;50.752;4.268;2024-01-11T07:11:02;61.72;;;26.38;;
25481;SDS011;13395;50.752;4.268;2024-01-11T07:13:29;60.10;;;23.20;;
25481;SDS011;13395;50.752;4.268;2024-01-11T07:15:55;59.42;;;24.92;;
25481;SDS011;13395;50.752;4.268;2024-01-11T07:18:22;59.03;;;23.92;;
25481;SDS011;13395;50.752;4.268;2024-01-11T07:20:47;59.70;;;23.00;;
25481;SDS011;13395;50.752;4.268;2024-01-11T07:23:13;55.55;;;24.33;;
25481;SDS011;13395;50.752;4.268;2024-01-11T07:25:40;70.63;;;26.80;;
25481;SDS011;13395;50.752;4.268;2024-01-11T07:28:06;67.35;;;28.83;;
25481;SDS011;13395;50.752;4.268;2024-01-11T07:30:32;59.85;;;26.50;;
25481;SDS011;13395;50.752;4.268;2024-01-11T07:32:58;61.47;;;25.23;;
25481;SDS011;13395;50.752;4.268;2024-01-11T07:35:24;66.10;;;26.75;;
25481;SDS011;13395;50.752;4.268;2024-01-11T07:37:49;68.72;;;26.27;;
25481;SDS011;13395;50.752;4.268;2024-01-11T07:40:15;63.25;;;25.40;;
25481;SDS011;13395;50.752;4.268;2024-01-11T07:42:41;64.28;;;26.25;;
25481;SDS011;13395;50.752;4.268;2024-01-11T07:45:08;56.22;;;24.83;;
25481;SDS011;13395;50.752;4.268;2024-01-11T07:47:38;73.03;;;26.67;;
25481;SDS011;13395;50.752;4.268;2024-01-11T07:50:07;71.45;;;28.85;;
25481;SDS011;13395;50.752;4.268;2024-01-11T07:52:37;85.53;;;30.30;;
25481;SDS011;13395;50.752;4.268;2024-01-11T07:55:06;66.90;;;27.58;;
25481;SDS011;13395;50.752;4.268;2024-01-11T07:57:33;64.38;;;26.13;;
25481;SDS011;13395;50.752;4.268;2024-01-11T07:59:59;63.70;;;26.85;;
25481;SDS011;13395;50.752;4.268;2024-01-11T08:02:25;81.55;;;29.98;;
25481;SDS011;13395;50.752;4.268;2024-01-11T08:04:51;68.80;;;27.10;;
25481;SDS011;13395;50.752;4.268;2024-01-11T08:07:17;60.08;;;25.95;;
25481;SDS011;13395;50.752;4.268;2024-01-11T08:09:43;73.32;;;27.27;;
25481;SDS011;13395;50.752;4.268;2024-01-11T08:12:11;80.72;;;28.95;;
25481;SDS011;13395;50.752;4.268;2024-01-11T08:14:39;58.80;;;25.98;;
25481;SDS011;13395;50.752;4.268;2024-01-11T08:17:07;56.80;;;25.33;;
25481;SDS011;13395;50.752;4.268;2024-01-11T08:19:33;71.00;;;26.02;;
25481;SDS011;13395;50.752;4.268;2024-01-11T08:21:59;73.90;;;27.50;;
25481;SDS011;13395;50.752;4.268;2024-01-11T08:24:25;72.97;;;28.50;;
25481;SDS011;13395;50.752;4.268;2024-01-11T08:26:51;72.90;;;28.45;;
25481;SDS011;13395;50.752;4.268;2024-01-11T08:29:17;75.50;;;27.48;;
25481;SDS011;13395;50.752;4.268;2024-01-11T08:31:44;63.20;;;26.25;;
25481;SDS011;13395;50.752;4.268;2024-01-11T08:34:11;60.30;;;26.55;;
25481;SDS011;13395;50.752;4.268;2024-01-11T08:36:36;74.88;;;28.48;;
25481;SDS011;13395;50.752;4.268;2024-01-11T08:39:04;65.65;;;27.30;;
25481;SDS011;13395;50.752;4.268;2024-01-11T08:41:33;68.70;;;27.48;;
25481;SDS011;13395;50.752;4.268;2024-01-11T08:44:05;64.10;;;26.45;;
25481;SDS011;13395;50.752;4.268;2024-01-11T08:46:32;67.43;;;27.02;;
25481;SDS011;13395;50.752;4.268;2024-01-11T08:49:01;66.05;;;27.83;;
25481;SDS011;13395;50.752;4.268;2024-01-11T08:51:28;67.72;;;27.77;;
25481;SDS011;13395;50.752;4.268;2024-01-11T08:53:54;62.72;;;25.52;;
25481;SDS011;13395;50.752;4.268;2024-01-11T08:56:23;69.85;;;26.90;;
25481;SDS011;13395;50.752;4.268;2024-01-11T08:58:49;64.82;;;27.38;;
25481;SDS011;13395;50.752;4.268;2024-01-11T09:01:15;66.05;;;27.15;;
25481;SDS011;13395;50.752;4.268;2024-01-11T09:03:41;64.70;;;26.27;;
25481;SDS011;13395;50.752;4.268;2024-01-11T09:06:06;66.85;;;27.55;;
25481;SDS011;13395;50.752;4.268;2024-01-11T09:08:32;69.90;;;27.38;;
25481;SDS011;13395;50.752;4.268;2024-01-11T09:10:58;68.63;;;26.33;;
25481;SDS011;13395;50.752;4.268;2024-01-11T09:13:24;67.97;;;26.70;;
25481;SDS011;13395;50.752;4.268;2024-01-11T09:15:54;68.35;;;26.85;;
25481;SDS011;13395;50.752;4.268;2024-01-11T09:18:20;71.82;;;27.52;;
25481;SDS011;13395;50.752;4.268;2024-01-11T09:20:46;69.20;;;28.45;;
25481;SDS011;13395;50.752;4.268;2024-01-11T09:23:12;71.07;;;28.90;;
25481;SDS011;13395;50.752;4.268;2024-01-11T09:25:38;59.53;;;26.02;;
25481;SDS011;13395;50.752;4.268;2024-01-11T09:28:04;72.75;;;27.10;;
25481;SDS011;13395;50.752;4.268;2024-01-11T09:30:30;67.53;;;27.75;;
25481;SDS011;13395;50.752;4.268;2024-01-11T09:32:56;66.15;;;27.17;;
25481;SDS011;13395;50.752;4.268;2024-01-11T09:35:22;71.45;;;28.58;;
25481;SDS011;13395;50.752;4.268;2024-01-11T09:37:51;71.90;;;28.05;;
25481;SDS011;13395;50.752;4.268;2024-01-11T09:40:17;66.53;;;27.85;;
25481;SDS011;13395;50.752;4.268;2024-01-11T09:42:43;70.82;;;30.42;;
25481;SDS011;13395;50.752;4.268;2024-01-11T09:45:11;70.93;;;30.58;;
25481;SDS011;13395;50.752;4.268;2024-01-11T09:47:38;71.20;;;28.63;;
25481;SDS011;13395;50.752;4.268;2024-01-11T09:50:05;73.38;;;31.17;;
25481;SDS011;13395;50.752;4.268;2024-01-11T09:52:32;69.13;;;28.45;;
25481;SDS011;13395;50.752;4.268;2024-01-11T09:54:58;57.63;;;25.73;;
25481;SDS011;13395;50.752;4.268;2024-01-11T09:57:26;59.10;;;26.23;;
25481;SDS011;13395;50.752;4.268;2024-01-11T09:59:54;68.82;;;27.05;;
25481;SDS011;13395;50.752;4.268;2024-01-11T10:02:22;59.22;;;27.27;;
25481;SDS011;13395;50.752;4.268;2024-01-11T10:04:56;54.53;;;26.85;;
25481;SDS011;13395;50.752;4.268;2024-01-11T10:07:22;62.05;;;27.17;;
25481;SDS011;13395;50.752;4.268;2024-01-11T10:09:48;58.78;;;27.45;;
25481;SDS011;13395;50.752;4.268;2024-01-11T10:12:14;66.13;;;29.50;;
25481;SDS011;13395;50.752;4.268;2024-01-11T10:14:40;60.35;;;27.63;;
25481;SDS011;13395;50.752;4.268;2024-01-11T10:17:06;53.95;;;27.25;;
25481;SDS011;13395;50.752;4.268;2024-01-11T10:19:32;60.92;;;27.63;;
25481;SDS011;13395;50.752;4.268;2024-01-11T10:21:58;58.75;;;28.35;;
25481;SDS011;13395;50.752;4.268;2024-01-11T10:24:23;51.53;;;27.08;;
25481;SDS011;13395;50.752;4.268;2024-01-11T10:26:56;63.05;;;28.27;;
25481;SDS011;13395;50.752;4.268;2024-01-11T10:29:22;57.60;;;27.77;;
25481;SDS011;13395;50.752;4.268;2024-01-11T10:31:52;54.53;;;27.88;;
25481;SDS011;13395;50.752;4.268;2024-01-11T10:34:18;54.30;;;28.30;;
25481;SDS011;13395;50.752;4.268;2024-01-11T10:36:43;58.53;;;27.80;;
25481;SDS011;13395;50.752;4.268;2024-01-11T10:39:09;59.55;;;28.52;;
25481;SDS011;13395;50.752;4.268;2024-01-11T10:41:47;55.83;;;28.23;;
25481;SDS011;13395;50.752;4.268;2024-01-11T10:44:18;58.53;;;29.00;;
25481;SDS011;13395;50.752;4.268;2024-01-11T10:46:47;64.63;;;30.27;;
25481;SDS011;13395;50.752;4.268;2024-01-11T10:49:17;58.28;;;27.80;;
25481;SDS011;13395;50.752;4.268;2024-01-11T10:52:02;63.33;;;29.02;;
25481;SDS011;13395;50.752;4.268;2024-01-11T10:54:31;60.85;;;28.83;;
25481;SDS011;13395;50.752;4.268;2024-01-11T10:56:59;59.80;;;29.75;;
25481;SDS011;13395;50.752;4.268;2024-01-11T10:59:26;55.85;;;27.40;;
25481;SDS011;13395;50.752;4.268;2024-01-11T11:01:56;62.88;;;29.83;;
25481;SDS011;13395;50.752;4.268;2024-01-11T11:04:23;63.83;;;30.30;;
25481;SDS011;13395;50.752;4.268;2024-01-11T11:06:50;71.55;;;30.05;;
25481;SDS011;13395;50.752;4.268;2024-01-11T11:09:19;61.78;;;28.08;;
25481;SDS011;13395;50.752;4.268;2024-01-11T11:11:46;62.80;;;29.83;;
25481;SDS011;13395;50.752;4.268;2024-01-11T11:14:14;65.47;;;29.00;;
25481;SDS011;13395;50.752;4.268;2024-01-11T11:16:40;57.45;;;27.77;;
25481;SDS011;13395;50.752;4.268;2024-01-11T11:19:07;70.00;;;29.75;;
25481;SDS011;13395;50.752;4.268;2024-01-11T11:21:41;50.08;;;26.83;;
25481;SDS011;13395;50.752;4.268;2024-01-11T11:24:07;66.22;;;27.90;;
25481;SDS011;13395;50.752;4.268;2024-01-11T11:26:34;65.50;;;27.58;;
25481;SDS011;13395;50.752;4.268;2024-01-11T11:29:00;61.58;;;27.33;;
25481;SDS011;13395;50.752;4.268;2024-01-11T11:31:44;61.38;;;27.30;;
25481;SDS011;13395;50.752;4.268;2024-01-11T11:34:12;55.40;;;28.10;;
25481;SDS011;13395;50.752;4.268;2024-01-11T11:36:41;62.58;;;26.80;;
25481;SDS011;13395;50.752;4.268;2024-01-11T11:39:10;52.05;;;25.90;;
25481;SDS011;13395;50.752;4.268;2024-01-11T11:41:36;57.33;;;26.17;;
25481;SDS011;13395;50.752;4.268;2024-01-11T11:44:04;58.00;;;27.30;;
25481;SDS011;13395;50.752;4.268;2024-01-11T11:46:31;58.10;;;24.83;;
25481;SDS011;13395;50.752;4.268;2024-01-11T11:48:57;48.35;;;25.52;;
25481;SDS011;13395;50.752;4.268;2024-01-11T11:51:23;51.25;;;25.02;;
25481;SDS011;13395;50.752;4.268;2024-01-11T11:53:49;56.00;;;28.42;;
25481;SDS011;13395;50.752;4.268;2024-01-11T11:56:17;55.38;;;26.55;;
25481;SDS011;13395;50.752;4.268;2024-01-11T11:58:44;55.35;;;26.88;;
25481;SDS011;13395;50.752;4.268;2024-01-11T12:01:10;56.72;;;26.30;;
25481;SDS011;13395;50.752;4.268;2024-01-11T12:03:37;53.17;;;25.85;;
25481;SDS011;13395;50.752;4.268;2024-01-11T12:06:06;71.53;;;26.67;;
25481;SDS011;13395;50.752;4.268;2024-01-11T12:08:40;66.35;;;26.73;;
25481;SDS011;13395;50.752;4.268;2024-01-11T12:11:14;60.40;;;27.00;;
25481;SDS011;13395;50.752;4.268;2024-01-11T12:13:43;58.97;;;27.08;;
25481;SDS011;13395;50.752;4.268;2024-01-11T12:16:09;59.63;;;25.80;;
25481;SDS011;13395;50.752;4.268;2024-01-11T12:18:35;57.55;;;25.20;;
25481;SDS011;13395;50.752;4.268;2024-01-11T12:21:01;54.17;;;25.83;;
25481;SDS011;13395;50.752;4.268;2024-01-11T12:23:27;53.88;;;23.67;;
25481;SDS011;13395;50.752;4.268;2024-01-11T12:25:56;51.10;;;23.70;;
25481;SDS011;13395;50.752;4.268;2024-01-11T12:28:23;49.63;;;24.20;;
25481;SDS011;13395;50.752;4.268;2024-01-11T12:30:49;48.75;;;22.98;;
25481;SDS011;13395;50.752;4.268;2024-01-11T12:33:15;47.97;;;23.77;;
25481;SDS011;13395;50.752;4.268;2024-01-11T12:35:42;47.53;;;22.95;;
25481;SDS011;13395;50.752;4.268;2024-01-11T12:38:08;53.83;;;25.02;;
25481;SDS011;13395;50.752;4.268;2024-01-11T12:40:36;45.30;;;22.33;;
25481;SDS011;13395;50.752;4.268;2024-01-11T12:43:02;52.35;;;22.92;;
25481;SDS011;13395;50.752;4.268;2024-01-11T12:45:35;49.13;;;22.92;;
25481;SDS011;13395;50.752;4.268;2024-01-11T12:48:01;42.53;;;22.20;;
25481;SDS011;13395;50.752;4.268;2024-01-11T12:50:28;48.72;;;23.63;;
25481;SDS011;13395;50.752;4.268;2024-01-11T12:53:07;47.42;;;23.40;;
25481;SDS011;13395;50.752;4.268;2024-01-11T12:55:34;44.08;;;20.98;;
25481;SDS011;13395;50.752;4.268;2024-01-11T12:58:06;40.08;;;21.88;;
25481;SDS011;13395;50.752;4.268;2024-01-11T13:00:34;39.70;;;21.08;;
25481;SDS011;13395;50.752;4.268;2024-01-11T13:03:01;46.40;;;22.67;;
25481;SDS011;13395;50.752;4.268;2024-01-11T13:05:27;37.03;;;20.05;;
25481;SDS011;13395;50.752;4.268;2024-01-11T13:07:52;36.35;;;21.17;;
25481;SDS011;13395;50.752;4.268;2024-01-11T13:10:18;32.88;;;17.98;;
25481;SDS011;13395;50.752;4.268;2024-01-11T13:12:44;37.00;;;19.67;;
25481;SDS011;13395;50.752;4.268;2024-01-11T13:15:10;45.28;;;22.38;;
25481;SDS011;13395;50.752;4.268;2024-01-11T13:17:36;44.13;;;21.52;;
25481;SDS011;13395;50.752;4.268;2024-01-11T13:20:01;37.65;;;21.90;;
25481;SDS011;13395;50.752;4.268;2024-01-11T13:22:28;38.30;;;19.02;;
25481;SDS011;13395;50.752;4.268;2024-01-11T13:24:53;42.67;;;21.15;;
25481;SDS011;13395;50.752;4.268;2024-01-11T13:27:19;40.20;;;20.42;;
25481;SDS011;13395;50.752;4.268;2024-01-11T13:29:45;39.20;;;21.42;;
25481;SDS011;13395;50.752;4.268;2024-01-11T13:32:11;43.80;;;21.17;;
25481;SDS011;13395;50.752;4.268;2024-01-11T13:34:38;36.22;;;20.02;;
25481;SDS011;13395;50.752;4.268;2024-01-11T13:37:03;40.40;;;20.25;;
25481;SDS011;13395;50.752;4.268;2024-01-11T13:39:30;30.55;;;20.38;;
25481;SDS011;13395;50.752;4.268;2024-01-11T13:41:56;37.83;;;19.13;;
25481;SDS011;13395;50.752;4.268;2024-01-11T13:44:22;36.63;;;19.42;;
25481;SDS011;13395;50.752;4.268;2024-01-11T13:46:47;33.53;;;18.00;;
25481;SDS011;13395;50.752;4.268;2024-01-11T13:49:13;31.23;;;17.75;;
25481;SDS011;13395;50.752;4.268;2024-01-11T13:51:38;49.25;;;19.83;;
25481;SDS011;13395;50.752;4.268;2024-01-11T13:54:04;31.42;;;17.63;;
25481;SDS011;13395;50.752;4.268;2024-01-11T13:56:30;37.20;;;17.02;;
25481;SDS011;13395;50.752;4.268;2024-01-11T13:58:56;44.58;;;18.58;;
25481;SDS011;13395;50.752;4.268;2024-01-11T14:01:21;31.83;;;18.90;;
25481;SDS011;13395;50.752;4.268;2024-01-11T14:03:47;28.17;;;18.08;;
25481;SDS011;13395;50.752;4.268;2024-01-11T14:06:12;35.72;;;19.13;;
25481;SDS011;13395;50.752;4.268;2024-01-11T14:08:38;36.83;;;20.90;;
25481;SDS011;13395;50.752;4.268;2024-01-11T14:11:04;40.05;;;19.65;;
25481;SDS011;13395;50.752;4.268;2024-01-11T14:13:30;41.38;;;18.25;;
25481;SDS011;13395;50.752;4.268;2024-01-11T14:15:56;32.75;;;18.50;;
25481;SDS011;13395;50.752;4.268;2024-01-11T14:18:22;34.08;;;18.30;;
25481;SDS011;13395;50.752;4.268;2024-01-11T14:20:48;40.15;;;17.75;;